KBQK/BQK METAR and TAF weather

Enter ICAO airport designator
Station Type Date Time Source
KBQK METAR 2018/01/19 17:35 UTC NOAA

KBQK 191735Z AUTO 25010KT 10SM CLR 12/M09 A3033 RMK AO2


Station Type Date Time Source
KBQK Decoded METAR 2018/01/19 17:35 UTC NOAA

Brunswick / Glynco, GA, United States (KBQK) 31-15N 081-28W
Jan 19, 2018 - 12:35 PM EST / 2018.01.19 1735 UTC
Wind: from the WSW (250 degrees) at 12 MPH (10 KT):0
Visibility: 10 mile(s):0
Sky conditions: clear
Temperature: 53 F (12 C)
Dew Point: 15 F (-9 C)
Relative Humidity: 22%
Pressure (altimeter): 30.33 in. Hg (1027 hPa)
ob: KBQK 191735Z AUTO 25010KT 10SM CLR 12/M09 A3033 RMK AO2
cycle: 17

Station Type Date Time Source
KBQK TAF UTC NOAA

Error!


Example: see airport list